Time;durP1;ratioP1;P1;durP2;ratioP2;P2;SDS_P1;SDS_P2;PMS_P1;PMS_P2;Temp;Humidity;BMP_temperature;BMP_pressure;BME280_temperature;BME280_humidity;BME280_pressure;Samples;Min_cycle;Max_cycle;Signal;HPM_P1;HPM_P2
2022/05/21 00:00:16;;;;;;;3.62;3.30;;;;;;;22.69;47.82;99063.03;1825137;78;21056;-69
2022/05/21 00:02:42;;;;;;;3.65;3.35;;;;;;;22.68;47.85;99054.66;1826551;78;21006;-69
2022/05/21 00:05:09;;;;;;;3.83;3.52;;;;;;;22.67;47.88;99058.97;1826201;78;21076;-69
2022/05/21 00:07:36;;;;;;;3.60;3.30;;;;;;;22.67;47.87;99058.97;1826229;78;21230;-68
2022/05/21 00:10:05;;;;;;;4.05;3.65;;;;;;;22.65;47.89;99059.23;1826192;78;21501;-69
2022/05/21 00:12:31;;;;;;;3.62;3.33;;;;;;;22.65;47.91;99066.55;1826248;78;21044;-70
2022/05/21 00:14:58;;;;;;;3.83;3.42;;;;;;;22.63;47.91;99054.62;1826216;78;21060;-70
2022/05/21 00:17:24;;;;;;;4.22;3.85;;;;;;;22.64;47.92;99055.42;1825127;78;21109;-69
2022/05/21 00:19:50;;;;;;;3.70;3.40;;;;;;;22.62;47.93;99061.64;1826168;78;21266;-70
2022/05/21 00:22:17;;;;;;;4.42;4.03;;;;;;;22.62;47.92;99057.58;1826349;78;21099;-69
2022/05/21 00:24:43;;;;;;;4.12;3.65;;;;;;;22.62;47.94;99046.75;1826390;78;21052;-69
2022/05/21 00:27:10;;;;;;;3.80;3.50;;;;;;;22.61;47.93;99049.20;1802359;78;21029;-70
2022/05/21 00:29:36;;;;;;;3.65;3.35;;;;;;;22.60;47.95;99054.33;1793947;79;21045;-69
2022/05/21 00:32:04;;;;;;;3.75;3.45;;;;;;;22.58;47.94;99048.66;1794376;79;21703;-69
2022/05/21 00:34:31;;;;;;;3.77;3.47;;;;;;;22.59;47.95;99049.46;1801554;78;21053;-70
2022/05/21 00:36:58;;;;;;;3.65;3.35;;;;;;;22.58;47.94;99047.84;1826174;78;21007;-70
2022/05/21 00:39:24;;;;;;;3.72;3.27;;;;;;;22.56;47.96;99044.05;1826273;78;21470;-69
2022/05/21 00:41:50;;;;;;;3.90;3.50;;;;;;;22.56;47.97;99042.69;1826262;78;21053;-69
2022/05/21 00:44:17;;;;;;;3.98;3.60;;;;;;;22.55;47.98;99044.30;1826163;78;21127;-69
2022/05/21 00:46:46;;;;;;;3.00;2.77;;;;;;;22.55;47.97;99047.01;1825990;77;21033;-70
2022/05/21 00:49:28;;;;;;;3.83;3.52;;;;;;;22.54;47.99;99054.33;1826141;78;21037;-68
2022/05/21 00:52:14;;;;;;;3.58;3.27;;;;;;;22.53;48.00;99051.88;1812619;78;21037;-69
2022/05/21 00:54:45;;;;;;;3.67;3.37;;;;;;;22.53;48.03;99051.88;1793611;79;21037;-69
2022/05/21 00:57:30;;;;;;;3.77;3.47;;;;;;;22.49;48.04;99054.29;1793827;80;21120;-68
2022/05/21 01:00:10;;;;;;;3.27;2.98;;;;;;;22.49;48.04;99052.94;1793600;80;21042;-68
2022/05/21 01:02:47;;;;;;;3.58;3.25;;;;;;;22.44;48.05;99041.27;1790647;79;21384;-70
2022/05/21 01:05:16;;;;;;;3.47;3.10;;;;;;;22.46;48.08;99044.53;1793388;79;21520;-69
2022/05/21 01:07:44;;;;;;;3.35;3.05;;;;;;;22.45;48.13;99050.48;1793588;79;21044;-69
2022/05/21 01:10:11;;;;;;;3.50;3.20;;;;;;;22.45;48.12;99051.03;1794912;78;21736;-68
2022/05/21 01:12:42;;;;;;;3.47;3.17;;;;;;;22.43;48.13;99049.94;1793462;80;21049;-69
2022/05/21 01:15:12;;;;;;;3.60;3.30;;;;;;;22.43;48.14;99045.88;1793625;80;21013;-69
2022/05/21 01:17:39;;;;;;;3.20;2.95;;;;;;;22.42;48.14;99055.05;1793934;79;21472;-70
2022/05/21 01:20:15;;;;;;;3.58;3.27;;;;;;;22.42;48.16;99053.70;1793619;80;21166;-70
2022/05/21 01:22:52;;;;;;;3.90;3.52;;;;;;;22.41;48.15;99053.44;1793556;80;21879;-69
2022/05/21 01:25:24;;;;;;;3.30;3.08;;;;;;;22.41;48.16;99049.90;1795130;78;20998;-69
2022/05/21 01:27:53;;;;;;;3.67;3.37;;;;;;;22.39;48.16;99047.48;1826216;78;21933;-69
2022/05/21 01:30:32;;;;;;;3.65;3.27;;;;;;;22.38;48.17;99048.55;1826356;78;21482;-69
2022/05/21 01:33:01;;;;;;;3.60;3.30;;;;;;;22.37;48.19;99046.38;1826113;78;21099;-69
2022/05/21 01:35:28;;;;;;;3.50;3.20;;;;;;;22.36;48.20;99048.80;1782950;78;21068;-69
2022/05/21 01:37:56;;;;;;;3.85;3.47;;;;;;;22.36;48.22;99056.11;1826138;78;21064;-69
2022/05/21 01:40:23;;;;;;;3.55;3.25;;;;;;;22.35;48.24;99048.54;1826105;78;21049;-69
2022/05/21 01:45:35;;;;;;;3.87;3.58;;;;;;;22.33;48.22;99045.83;1793614;80;21030;-69
2022/05/21 01:48:04;;;;;;;3.70;3.40;;;;;;;22.32;48.24;99041.48;1793356;80;21138;-70
2022/05/21 01:50:31;;;;;;;3.52;3.22;;;;;;;22.32;48.24;99040.13;1793440;80;21041;-69
2022/05/21 01:52:57;;;;;;;3.60;3.30;;;;;;;22.32;48.35;99042.83;1793620;80;21072;-69
2022/05/21 01:55:24;;;;;;;3.45;3.15;;;;;;;22.30;48.31;99039.03;1793552;79;21554;-68
2022/05/21 01:57:52;;;;;;;4.17;3.00;;;;;;;22.31;48.28;99033.08;1793620;79;21032;-69
2022/05/21 02:00:19;;;;;;;3.27;3.02;;;;;;;22.30;48.28;99034.17;1794592;78;22014;-69
2022/05/21 02:02:46;;;;;;;3.50;3.20;;;;;;;22.29;48.29;99025.24;1793564;80;21515;-68
2022/05/21 02:05:12;;;;;;;3.20;2.90;;;;;;;22.29;48.30;99028.47;1793671;80;21045;-69
2022/05/21 02:07:41;;;;;;;3.30;3.00;;;;;;;22.28;48.30;99022.80;1793423;80;21006;-69
2022/05/21 02:10:08;;;;;;;3.10;2.83;;;;;;;22.27;48.32;99021.16;1793656;80;21494;-69
2022/05/21 02:12:35;;;;;;;3.47;3.17;;;;;;;22.27;48.32;99026.56;1793499;79;21301;-68
2022/05/21 02:15:01;;;;;;;3.33;3.02;;;;;;;22.26;48.32;99024.41;1793483;80;20989;-70
2022/05/21 02:17:28;;;;;;;3.10;2.90;;;;;;;22.26;48.34;99023.59;1794681;78;21076;-69
2022/05/21 02:19:55;;;;;;;3.30;2.98;;;;;;;22.25;48.36;99025.50;1793619;79;21442;-69
2022/05/21 02:22:22;;;;;;;3.50;3.20;;;;;;;22.26;48.37;99028.46;1793509;79;21072;-69
2022/05/21 02:24:49;;;;;;;3.20;2.90;;;;;;;22.25;48.37;99026.02;1793503;80;21122;-68
2022/05/21 02:27:16;;;;;;;3.70;3.40;;;;;;;22.24;48.41;99025.72;1793597;80;21470;-69
2022/05/21 02:29:43;;;;;;;3.27;2.98;;;;;;;22.24;48.44;99024.37;1793444;79;21120;-69
2022/05/21 02:32:12;;;;;;;3.37;3.08;;;;;;;22.23;48.40;99026.23;1793480;80;21033;-69
2022/05/21 02:34:39;;;;;;;3.60;3.30;;;;;;;22.23;48.41;99024.08;1794688;78;21024;-69
2022/05/21 02:39:52;;;;;;;2.95;2.75;;;;;;;22.22;48.41;99023.82;1793580;79;21538;-69
2022/05/21 02:45:06;;;;;;;3.08;2.77;;;;;;;22.21;48.46;99024.87;1793675;80;21029;-69
2022/05/21 02:47:33;;;;;;;2.50;2.30;;;;;;;22.20;48.49;99028.13;1793410;80;21041;-69
2022/05/21 02:50:00;;;;;;;3.00;2.80;;;;;;;22.20;48.48;99032.19;1794697;78;21178;-70
2022/05/21 02:52:26;;;;;;;3.05;2.85;;;;;;;22.18;48.50;99012.16;1793434;80;20987;-70
2022/05/21 02:54:53;;;;;;;3.40;3.10;;;;;;;22.18;48.49;99017.56;1793506;80;21036;-69
2022/05/21 02:57:19;;;;;;;3.02;2.83;;;;;;;22.17;48.53;99011.90;1793494;80;20981;-70
2022/05/21 02:59:48;;;;;;;3.37;3.08;;;;;;;22.18;48.51;99018.11;1793509;79;21544;-69
2022/05/21 03:02:14;;;;;;;3.15;2.85;;;;;;;22.17;48.54;99020.53;1793443;80;21098;-69
2022/05/21 03:04:40;;;;;;;2.98;2.67;;;;;;;22.17;48.56;99011.90;1793607;80;21505;-70
2022/05/21 03:07:07;;;;;;;3.08;2.87;;;;;;;22.17;48.55;99009.70;1794555;78;21099;-71
2022/05/21 03:12:18;;;;;;;3.40;3.10;;;;;;;22.17;48.60;99011.06;1793638;80;21010;-69
2022/05/21 03:14:46;;;;;;;3.52;3.22;;;;;;;22.15;48.61;99011.31;1793510;79;21283;-70
2022/05/21 03:17:12;;;;;;;3.40;3.10;;;;;;;22.15;48.63;99009.16;1793516;80;20977;-69
2022/05/21 03:19:39;;;;;;;3.12;2.85;;;;;;;22.15;48.63;98997.80;1793564;80;21112;-69
2022/05/21 03:22:05;;;;;;;3.58;3.27;;;;;;;22.14;48.63;98992.67;1793462;80;21025;-69
2022/05/21 03:24:32;;;;;;;2.90;2.70;;;;;;;22.15;48.64;98992.93;1800249;77;21044;-71
2022/05/21 03:26:58;;;;;;;3.05;2.75;;;;;;;22.14;48.67;98997.53;1824372;78;21210;-69
2022/05/21 03:29:25;;;;;;;3.00;2.70;;;;;;;22.14;48.68;98997.53;1824195;78;21021;-68
2022/05/21 03:31:51;;;;;;;3.08;2.87;;;;;;;22.14;48.70;98996.18;1824279;78;21522;-70
2022/05/21 03:34:19;;;;;;;3.10;2.80;;;;;;;22.15;48.70;98995.63;1824264;78;21061;-69
2022/05/21 03:36:47;;;;;;;3.30;3.00;;;;;;;22.14;48.73;98993.47;1824489;78;21040;-69
2022/05/21 03:39:13;;;;;;;3.00;2.80;;;;;;;22.14;48.73;98997.53;1824379;78;21131;-69
2022/05/21 03:41:40;;;;;;;2.98;2.72;;;;;;;22.15;48.71;98991.03;1815050;78;21533;-69
2022/05/21 03:44:08;;;;;;;3.05;2.80;;;;;;;22.15;48.77;98983.46;1793749;80;21049;-70
2022/05/21 03:46:38;;;;;;;3.02;2.83;;;;;;;22.15;48.76;98987.52;1793623;80;21180;-68
2022/05/21 03:49:05;;;;;;;2.83;2.62;;;;;;;22.15;48.79;98982.91;1786323;79;21470;-68
2022/05/21 03:51:32;;;;;;;2.72;2.52;;;;;;;22.16;48.81;98983.20;1782494;79;21133;-69
2022/05/21 03:53:58;;;;;;;3.22;2.92;;;;;;;22.15;48.80;98967.23;1782564;80;20995;-69
2022/05/21 03:56:25;;;;;;;2.85;2.65;;;;;;;22.16;48.80;98968.88;1782521;80;22040;-69
2022/05/21 03:58:51;;;;;;;2.70;2.50;;;;;;;22.16;48.82;98962.92;1784024;79;21385;-69
2022/05/21 04:01:19;;;;;;;3.12;2.83;;;;;;;22.16;48.85;98956.16;1782624;79;21127;-69
2022/05/21 04:03:46;;;;;;;2.85;2.65;;;;;;;22.16;48.83;98952.64;1782485;80;21084;-69
2022/05/21 04:06:13;;;;;;;3.27;3.08;;;;;;;22.17;48.84;98937.52;1782594;80;22024;-69
2022/05/21 04:08:40;;;;;;;3.37;3.08;;;;;;;22.17;48.85;98936.16;1782511;80;20986;-69
2022/05/21 04:11:07;;;;;;;3.40;3.10;;;;;;;22.18;48.85;98945.08;1782582;80;21011;-68
2022/05/21 04:13:35;;;;;;;3.05;2.65;;;;;;;22.18;48.86;98945.88;1782529;79;21021;-69
2022/05/21 04:16:01;;;;;;;2.85;2.65;;;;;;;22.19;48.89;98944.82;1783586;79;22152;-69
2022/05/21 04:18:28;;;;;;;2.90;2.70;;;;;;;22.20;48.90;98952.39;1782314;79;21053;-69
2022/05/21 04:20:54;;;;;;;3.20;2.90;;;;;;;22.19;48.90;98962.41;1782793;80;21077;-69
2022/05/21 04:23:21;;;;;;;2.75;2.55;;;;;;;22.19;48.93;98958.34;1782582;80;21010;-69
2022/05/21 04:25:48;;;;;;;3.30;3.10;;;;;;;22.21;48.95;98962.66;1808676;79;21084;-69
2022/05/21 04:28:14;;;;;;;2.90;2.70;;;;;;;22.21;48.95;98959.95;1814658;78;21502;-70
2022/05/21 04:30:41;;;;;;;2.67;2.47;;;;;;;22.22;48.95;98964.30;1814823;79;21061;-69
2022/05/21 04:33:08;;;;;;;3.27;2.98;;;;;;;22.23;48.96;98960.51;1813742;78;21021;-68
2022/05/21 04:38:20;;;;;;;3.08;2.77;;;;;;;22.25;48.93;98963.27;1814983;78;20979;-69
2022/05/21 04:40:47;;;;;;;3.10;2.80;;;;;;;22.27;48.95;98957.58;1814602;78;21131;-69
2022/05/21 04:43:13;;;;;;;2.72;2.52;;;;;;;22.27;49.02;98956.22;1814555;79;20978;-69
2022/05/21 04:45:40;;;;;;;2.80;2.60;;;;;;;22.29;49.07;98965.72;1814478;79;21077;-70
2022/05/21 04:48:08;;;;;;;2.30;2.10;;;;;;;22.30;49.10;98955.70;1814388;78;21001;-69
2022/05/21 04:50:37;;;;;;;2.62;2.42;;;;;;;22.31;49.10;98957.31;1813351;78;21077;-69
2022/05/21 04:53:05;;;;;;;2.70;2.50;;;;;;;22.33;49.29;98949.78;1814623;79;21763;-69
2022/05/21 04:55:31;;;;;;;3.05;2.77;;;;;;;22.34;49.21;98944.63;1814542;78;21018;-69
2022/05/21 04:57:59;;;;;;;2.65;2.45;;;;;;;22.34;49.29;98940.02;1814547;78;20978;-69
2022/05/21 05:00:25;;;;;;;3.22;2.80;;;;;;;22.34;49.28;98935.97;1814573;79;20998;-69
2022/05/21 05:02:52;;;;;;;2.70;2.50;;;;;;;22.37;49.27;98938.70;1814588;79;21030;-69
2022/05/21 05:05:19;;;;;;;3.20;2.90;;;;;;;22.37;49.33;98942.20;1814573;78;21077;-69
2022/05/21 05:07:46;;;;;;;2.85;2.65;;;;;;;22.39;49.45;98937.89;1813525;79;21001;-69
2022/05/21 05:10:14;;;;;;;2.87;2.52;;;;;;;22.42;49.53;98933.28;1814490;78;20975;-69
2022/05/21 05:12:42;;;;;;;3.00;2.80;;;;;;;22.43;49.66;98930.06;1803494;79;21065;-69
2022/05/21 05:15:09;;;;;;;4.10;3.22;;;;;;;22.43;49.78;98932.22;1814595;79;21396;-69
2022/05/21 05:17:37;;;;;;;2.58;2.37;;;;;;;22.45;49.94;98913.82;1814461;78;21123;-69
2022/05/21 05:20:04;;;;;;;2.52;2.35;;;;;;;22.47;49.95;98917.63;1814791;79;21014;-69
2022/05/21 05:22:31;;;;;;;3.67;2.77;;;;;;;22.48;50.08;98910.56;1814535;79;21014;-69
2022/05/21 05:24:58;;;;;;;3.12;2.92;;;;;;;22.49;50.18;98905.44;1802540;77;21017;-68
2022/05/21 05:27:25;;;;;;;2.52;2.30;;;;;;;22.51;50.26;98908.69;1814581;79;21503;-69
2022/05/21 05:29:51;;;;;;;3.20;2.90;;;;;;;22.52;50.42;98906.27;1814480;79;21119;-69
2022/05/21 05:32:18;;;;;;;3.35;3.05;;;;;;;22.53;50.65;98904.37;1814555;79;21018;-69
2022/05/21 05:34:45;;;;;;;3.10;2.90;;;;;;;22.55;50.63;98898.16;1814538;79;21069;-70
2022/05/21 05:37:11;;;;;;;2.85;2.65;;;;;;;22.55;50.52;98890.83;1814825;79;21545;-69
2022/05/21 05:39:39;;;;;;;2.87;2.67;;;;;;;22.57;50.56;98894.63;1814488;79;21022;-69
2022/05/21 05:42:07;;;;;;;2.92;2.72;;;;;;;22.60;50.37;98890.56;1813400;79;21131;-69
2022/05/21 05:44:33;;;;;;;4.97;2.90;;;;;;;22.62;50.60;98892.47;1814369;79;21022;-69
2022/05/21 05:47:01;;;;;;;2.95;2.75;;;;;;;22.62;50.55;98881.64;1814493;78;21975;-69
2022/05/21 05:49:27;;;;;;;3.40;3.10;;;;;;;22.64;50.43;98884.89;1814422;79;21022;-70
2022/05/21 05:51:54;;;;;;;2.90;2.65;;;;;;;22.65;50.68;98881.11;1814808;78;21081;-70
2022/05/21 05:54:20;;;;;;;3.33;3.00;;;;;;;22.67;50.60;98884.36;1814607;78;21132;-69
2022/05/21 05:56:47;;;;;;;2.85;2.65;;;;;;;22.68;50.59;98882.75;1814320;78;21077;-69
2022/05/21 06:04:44;;;;;;;3.25;2.95;;;;;;;22.73;50.60;98877.87;1814467;78;20975;-69
2022/05/21 06:07:13;;;;;;;3.00;2.80;;;;;;;22.73;50.81;98874.61;1814624;78;21972;-69
2022/05/21 06:09:41;;;;;;;3.37;3.08;;;;;;;22.75;50.89;98870.29;1814352;78;22033;-70
2022/05/21 06:12:09;;;;;;;2.90;2.67;;;;;;;22.77;50.78;98874.89;1814702;78;20994;-69
2022/05/21 06:14:37;;;;;;;3.15;2.80;;;;;;;22.78;50.88;98875.18;1813515;79;21179;-68
2022/05/21 06:17:05;;;;;;;3.52;3.22;;;;;;;22.81;50.93;98878.69;1814475;79;21021;-69
2022/05/21 06:19:31;;;;;;;3.05;2.83;;;;;;;22.81;50.94;98871.91;1814424;78;21139;-69
2022/05/21 06:21:59;;;;;;;3.30;3.00;;;;;;;22.82;50.98;98868.14;1814493;78;21018;-69
2022/05/21 06:24:25;;;;;;;3.47;3.17;;;;;;;22.85;50.92;98866.78;1814425;79;21466;-68
2022/05/21 06:26:53;;;;;;;3.35;3.05;;;;;;;22.86;50.92;98870.58;1804021;79;21005;-69
2022/05/21 06:29:19;;;;;;;3.50;3.20;;;;;;;22.89;50.81;98869.21;1802849;79;21068;-69
2022/05/21 06:31:46;;;;;;;3.50;3.20;;;;;;;22.90;50.76;98864.88;1795752;79;21149;-69
2022/05/21 06:34:12;;;;;;;3.77;3.47;;;;;;;22.92;50.78;98864.07;1782305;80;21479;-69
2022/05/21 06:36:39;;;;;;;3.62;3.33;;;;;;;22.93;50.75;98865.70;1782291;80;21038;-69
2022/05/21 06:39:07;;;;;;;3.45;3.15;;;;;;;22.95;50.80;98864.89;1782743;79;21033;-70
2022/05/21 06:41:34;;;;;;;3.67;3.37;;;;;;;22.96;50.73;98863.80;1782422;80;20990;-71
2022/05/21 06:44:00;;;;;;;3.58;3.27;;;;;;;22.99;50.75;98863.02;1782371;80;21142;-70
2022/05/21 06:46:27;;;;;;;3.27;3.08;;;;;;;23.01;50.74;98866.27;1782295;80;21001;-69
2022/05/21 06:48:55;;;;;;;3.85;3.52;;;;;;;23.01;50.80;98863.55;1785563;79;20998;-70
2022/05/21 06:51:21;;;;;;;3.40;3.10;;;;;;;23.02;50.66;98867.32;1793985;79;21017;-69
2022/05/21 06:53:49;;;;;;;3.80;3.50;;;;;;;23.05;50.56;98861.95;1793445;80;21009;-69
2022/05/21 06:56:17;;;;;;;3.95;3.65;;;;;;;23.07;50.47;98857.08;1793548;79;21093;-69
2022/05/21 06:58:44;;;;;;;4.47;4.08;;;;;;;23.08;50.48;98857.33;1793366;80;21486;-69
2022/05/21 07:01:11;;;;;;;4.20;3.80;;;;;;;23.10;50.50;98857.87;1804062;78;21048;-69
2022/05/21 07:03:38;;;;;;;4.40;4.00;;;;;;;23.11;50.39;98847.31;1819646;78;21032;-69
2022/05/21 07:08:50;;;;;;;5.47;4.60;;;;;;;23.15;50.53;98844.33;1793363;80;21198;-69
2022/05/21 07:11:18;;;;;;;3.98;3.67;;;;;;;23.16;50.50;98843.26;1793719;79;21009;-69
2022/05/21 07:13:45;;;;;;;4.40;4.00;;;;;;;23.18;50.46;98846.51;1793803;80;21463;-70
2022/05/21 07:16:11;;;;;;;4.72;4.33;;;;;;;23.19;50.58;98845.41;1793464;79;21029;-70
2022/05/21 07:18:37;;;;;;;4.40;4.00;;;;;;;23.21;50.51;98843.78;1793554;80;21029;-69
2022/05/21 07:21:04;;;;;;;4.72;4.33;;;;;;;23.22;50.63;98838.09;1793723;80;21103;-69
2022/05/21 07:23:31;;;;;;;4.83;4.42;;;;;;;23.23;50.61;98834.28;1803936;78;21001;-69
2022/05/21 07:25:57;;;;;;;4.60;4.20;;;;;;;23.26;50.49;98832.95;1826291;78;21015;-69
2022/05/21 07:28:26;;;;;;;4.37;3.98;;;;;;;23.28;50.49;98829.42;1826191;78;21549;-69
2022/05/21 07:30:53;;;;;;;4.33;3.92;;;;;;;23.29;50.33;98823.70;1826402;78;21073;-69
2022/05/21 07:33:20;;;;;;;4.78;4.37;;;;;;;23.30;50.44;98812.34;1826138;78;21133;-69
2022/05/21 07:35:47;;;;;;;4.00;3.70;;;;;;;23.32;50.49;98809.62;1825988;78;21259;-70
2022/05/21 07:38:16;;;;;;;4.67;4.28;;;;;;;23.34;50.46;98803.93;1826062;78;20985;-69
2022/05/21 07:40:46;;;;;;;4.47;4.08;;;;;;;23.35;50.44;98800.95;1800848;78;21490;-69
2022/05/21 07:43:27;;;;;;;4.40;4.00;;;;;;;23.34;50.54;98793.89;1793809;80;21522;-71
2022/05/21 07:45:55;;;;;;;5.10;4.60;;;;;;;23.39;50.60;98794.96;1793711;79;21260;-70
2022/05/21 07:48:21;;;;;;;4.90;4.50;;;;;;;23.40;50.54;98795.25;1793549;79;21026;-70
2022/05/21 07:50:51;;;;;;;5.03;4.62;;;;;;;23.40;50.54;98787.92;1793500;80;21029;-69
2022/05/21 07:53:24;;;;;;;4.78;4.37;;;;;;;23.42;50.62;98788.45;1793610;79;21581;-68
2022/05/21 07:55:53;;;;;;;4.83;4.42;;;;;;;23.43;50.58;98786.02;1793740;78;21021;-69
2022/05/21 07:58:21;;;;;;;4.75;4.35;;;;;;;23.44;50.54;98774.63;1825549;78;21145;-70
2022/05/21 08:00:49;;;;;;;4.67;4.28;;;;;;;23.45;50.54;98778.43;1826256;78;21541;-70
2022/05/21 08:03:16;;;;;;;5.03;4.62;;;;;;;23.47;50.55;98773.55;1826218;78;21025;-70
2022/05/21 08:05:45;;;;;;;4.60;4.20;;;;;;;23.49;50.52;98770.56;1825965;78;21049;-69
2022/05/21 08:08:13;;;;;;;4.90;4.50;;;;;;;23.50;50.42;98768.91;1826110;78;21489;-71
2022/05/21 08:10:43;;;;;;;4.80;4.40;;;;;;;23.52;50.45;98770.80;1826068;78;21133;-70
2022/05/21 08:13:11;;;;;;;4.53;4.12;;;;;;;23.54;50.50;98778.66;1824959;78;21076;-69
2022/05/21 08:15:39;;;;;;;4.60;4.20;;;;;;;23.55;50.42;98771.61;1826381;78;20993;-69
2022/05/21 08:18:06;;;;;;;4.67;4.28;;;;;;;23.57;50.44;98771.34;1826095;78;21005;-70
2022/05/21 08:20:34;;;;;;;4.58;4.17;;;;;;;23.58;50.42;98768.88;1826192;78;21025;-70
2022/05/21 08:28:32;;;;;;;4.60;4.20;;;;;;;23.63;50.23;98770.77;1826019;78;20994;-69
2022/05/21 08:31:00;;;;;;;4.65;4.25;;;;;;;23.65;50.18;98768.59;1825173;78;21057;-70
2022/05/21 08:33:27;;;;;;;4.95;4.55;;;;;;;23.66;50.19;98766.13;1826406;78;20970;-70
2022/05/21 08:35:53;;;;;;;4.50;4.10;;;;;;;23.67;50.12;98755.57;1826036;78;21137;-70
2022/05/21 08:38:20;;;;;;;5.10;4.70;;;;;;;23.69;50.05;98754.19;1826000;78;21013;-69
2022/05/21 08:41:02;;;;;;;5.35;4.95;;;;;;;23.72;50.08;98752.81;1826031;78;21021;-70
2022/05/21 08:44:01;;;;;;;5.62;5.12;;;;;;;23.74;50.00;98752.02;1826101;78;20978;-70
2022/05/21 08:46:54;;;;;;;5.25;4.75;;;;;;;23.74;49.99;98743.33;1826382;78;21052;-69
2022/05/21 08:49:39;;;;;;;;;;;;;;;23.77;50.02;98747.93;1796110;79;21251;-70
2022/05/21 08:52:23;;;;;;;5.15;4.75;;;;;;;23.78;50.06;98740.05;1793630;79;20169;-70
2022/05/21 08:54:50;;;;;;;5.35;4.90;;;;;;;23.79;50.04;98743.06;1793532;80;21068;-69
2022/05/21 08:57:46;;;;;;;6.85;5.12;;;;;;;23.79;50.09;98733.58;1793521;80;20990;-69
2022/05/21 09:00:24;;;;;;;5.78;5.28;;;;;;;23.81;50.09;98730.04;1793679;80;21022;-70
2022/05/21 09:02:54;;;;;;;5.50;5.00;;;;;;;23.84;50.01;98734.91;1793428;80;21960;-70
2022/05/21 09:05:21;;;;;;;5.42;4.92;;;;;;;23.84;50.01;98728.13;1794757;78;21550;-70
2022/05/21 09:08:27;;;;;;;5.50;5.00;;;;;;;23.86;50.02;98728.66;1793806;80;21084;-69
2022/05/21 09:11:04;;;;;;;5.33;4.83;;;;;;;23.89;50.15;98728.92;1793496;79;22030;-70
2022/05/21 09:13:38;;;;;;;5.03;4.55;;;;;;;23.90;50.23;98731.88;1793593;79;21540;-70
2022/05/21 09:18:50;;;;;;;5.03;4.62;;;;;;;23.92;50.38;98716.69;1793595;79;21557;-70
2022/05/21 09:21:19;;;;;;;5.58;5.08;;;;;;;23.93;50.37;98717.77;1794744;78;21029;-70
2022/05/21 09:23:54;;;;;;;5.28;4.87;;;;;;;23.94;50.38;98715.30;1818997;78;21006;-71
2022/05/21 09:26:25;;;;;;;5.20;4.80;;;;;;;23.95;50.47;98726.95;1826195;78;21512;-70
2022/05/21 09:28:52;;;;;;;5.47;4.97;;;;;;;23.95;50.57;98733.73;1825006;78;21138;-72
2022/05/21 09:31:30;;;;;;;4.87;4.47;;;;;;;23.95;50.62;98741.88;1826102;78;21405;-71
2022/05/21 09:34:28;;;;;;;5.58;5.08;;;;;;;23.96;50.62;98754.91;1826239;78;21472;-71
2022/05/21 09:36:56;;;;;;;6.05;5.55;;;;;;;23.94;50.66;98758.70;1825683;78;21024;-69
2022/05/21 09:39:39;;;;;;;5.42;4.92;;;;;;;23.95;50.68;98777.13;1805941;78;21033;-70
2022/05/21 09:45:32;;;;;;;5.67;5.17;;;;;;;23.94;50.66;98781.76;1793512;79;21034;-71
2022/05/21 09:48:11;;;;;;;5.40;5.00;;;;;;;23.93;50.64;98780.67;1793403;79;21474;-71
2022/05/21 09:50:46;;;;;;;5.27;4.83;;;;;;;23.92;50.59;98775.80;1787995;80;21040;-71
2022/05/21 09:53:34;;;;;;;5.55;5.15;;;;;;;23.92;50.60;98762.80;1782566;79;21581;-72
2022/05/21 09:56:26;;;;;;;6.03;5.42;;;;;;;23.91;50.58;98755.73;1778663;79;21314;-69
2022/05/21 09:59:14;;;;;;;6.05;5.55;;;;;;;23.91;50.57;98738.94;1782562;80;21033;-70
2022/05/21 10:01:46;;;;;;;5.60;5.10;;;;;;;23.90;50.66;98744.08;1782444;79;21010;-71
2022/05/21 10:04:44;;;;;;;5.42;4.92;;;;;;;23.88;50.66;98754.41;1782425;79;21041;-70
2022/05/21 10:13:11;;;;;;;5.47;4.97;;;;;;;23.86;50.76;98738.95;1783539;79;21077;-71
2022/05/21 10:15:43;;;;;;;4.83;4.42;;;;;;;23.86;50.80;98732.73;1782443;80;21001;-71
2022/05/21 10:18:30;;;;;;;5.75;5.25;;;;;;;23.85;50.81;98738.67;1771835;80;21077;-70
2022/05/21 10:21:10;;;;;;;5.00;4.60;;;;;;;23.85;50.81;98740.03;1782456;80;20979;-71
2022/05/21 10:23:42;;;;;;;5.10;4.67;;;;;;;23.83;50.83;98730.02;1805235;79;21105;-72
2022/05/21 10:26:29;;;;;;;4.90;4.50;;;;;;;23.84;50.87;98714.58;1814443;78;21034;-71
2022/05/21 10:29:35;;;;;;;4.90;4.50;;;;;;;23.83;50.84;98699.38;1813745;78;21065;-71
2022/05/21 10:32:27;;;;;;;5.30;4.85;;;;;;;23.83;50.88;98682.55;1782438;79;21065;-71
2022/05/21 10:35:17;;;;;;;5.20;4.80;;;;;;;23.81;50.84;98679.31;1799291;79;21069;-71
2022/05/21 10:38:02;;;;;;;5.40;4.90;;;;;;;23.81;50.83;98674.45;1782344;79;21146;-71
2022/05/21 10:41:06;;;;;;;6.03;5.53;;;;;;;23.79;50.84;98699.13;1782401;79;21478;-70
2022/05/21 10:43:57;;;;;;;5.15;4.75;;;;;;;23.78;50.72;98692.09;1782300;79;20994;-73
2022/05/21 10:46:56;;;;;;;5.28;4.83;;;;;;;23.76;50.64;98683.41;1789348;79;21486;-71
2022/05/21 10:50:08;;;;;;;5.20;4.70;;;;;;;23.75;50.62;98669.02;1814494;79;21093;-70
2022/05/21 10:52:44;;;;;;;5.22;4.72;;;;;;;23.73;50.63;98691.53;1825959;78;21095;-71
2022/05/21 10:55:45;;;;;;;5.28;4.80;;;;;;;23.70;50.83;98676.37;1825944;78;21022;-71
2022/05/21 10:58:27;;;;;;;4.80;4.40;;;;;;;23.69;50.83;98670.70;1826011;78;21009;-71
2022/05/21 11:01:11;;;;;;;4.85;4.45;;;;;;;23.67;50.81;98659.33;1824035;78;21077;-71
2022/05/21 11:06:42;;;;;;;5.03;4.62;;;;;;;23.70;50.76;98647.38;1889401;76;22507;-70
2022/05/21 11:09:47;;;;;;;5.60;5.10;;;;;;;23.68;50.75;98644.66;1859981;77;20990;-71
2022/05/21 11:12:31;;;;;;;5.00;4.50;;;;;;;23.67;50.59;98634.38;1860282;77;21119;-70
2022/05/21 11:15:03;;;;;;;5.17;4.67;;;;;;;23.69;50.56;98625.41;1860247;77;20945;-71
2022/05/21 11:17:53;;;;;;;4.80;4.40;;;;;;;23.70;50.60;98612.66;1860579;77;25007;-71
2022/05/21 11:20:26;;;;;;;5.22;4.83;;;;;;;23.73;50.64;98620.23;1864833;76;21117;-69
2022/05/21 11:23:13;;;;;;;5.15;4.67;;;;;;;23.75;50.44;98624.28;1875629;76;21114;-70
2022/05/21 11:25:49;;;;;;;5.28;4.78;;;;;;;23.79;50.50;98623.20;1860218;77;21923;-71
2022/05/21 11:28:46;;;;;;;5.30;4.80;;;;;;;23.81;50.84;98626.99;1860635;77;21525;-70
2022/05/21 11:37:20;;;;;;;4.83;4.42;;;;;;;23.82;51.34;98590.11;1863695;76;20991;-71
2022/05/21 11:39:53;;;;;;;4.55;4.25;;;;;;;23.82;51.37;98578.46;1811981;79;21119;-69
2022/05/21 11:42:28;;;;;;;;;;;;;;;23.82;51.38;98575.19;1814439;79;21069;-71
2022/05/21 11:44:59;;;;;;;4.92;4.53;;;;;;;23.83;51.44;98572.73;1811667;79;20462;-70
2022/05/21 11:47:54;;;;;;;4.92;4.50;;;;;;;23.82;51.59;98570.33;1811305;79;21026;-71
2022/05/21 11:50:25;;;;;;;4.28;3.87;;;;;;;23.82;51.59;98585.23;1812190;79;21612;-71
2022/05/21 11:53:09;;;;;;;4.97;4.47;;;;;;;23.81;51.52;98593.90;1816243;78;21506;-70
2022/05/21 11:56:08;;;;;;;5.00;4.55;;;;;;;23.80;51.50;98588.75;1814942;78;21042;-71
2022/05/21 11:59:02;;;;;;;4.75;4.40;;;;;;;23.79;51.47;98561.39;1816124;79;21482;-70
2022/05/21 12:01:43;;;;;;;5.10;4.70;;;;;;;23.79;51.36;98560.03;1816193;78;21503;-70
2022/05/21 12:04:26;;;;;;;4.30;3.98;;;;;;;23.78;51.36;98550.23;1812703;79;21585;-69
2022/05/21 12:06:53;;;;;;;4.90;4.50;;;;;;;23.77;51.36;98548.63;1775646;80;21101;-70
2022/05/21 12:09:28;;;;;;;5.10;4.70;;;;;;;23.76;51.41;98541.05;1854779;76;21041;-70
2022/05/21 12:12:23;;;;;;;4.67;4.25;;;;;;;23.75;51.35;98539.42;1854722;77;21467;-71
2022/05/21 12:14:55;;;;;;;4.50;4.15;;;;;;;23.75;51.40;98532.09;1854664;76;21057;-70
2022/05/21 12:17:55;;;;;;;4.70;4.30;;;;;;;23.75;51.40;98517.17;1854292;77;21061;-70
2022/05/21 12:20:48;;;;;;;5.00;4.50;;;;;;;23.77;51.28;98517.45;1809298;76;21242;-71
2022/05/21 12:23:38;;;;;;;4.30;3.90;;;;;;;23.79;51.09;98509.88;1851389;76;21466;-71
2022/05/21 12:26:19;;;;;;;4.58;4.17;;;;;;;23.80;51.17;98510.11;1813857;77;21010;-70
2022/05/21 12:29:18;;;;;;;4.58;4.17;;;;;;;23.80;51.25;98509.59;1833229;77;21452;-69
2022/05/21 12:31:52;;;;;;;3.95;3.65;;;;;;;23.81;51.40;98499.55;1847026;77;21553;-71
2022/05/21 12:35:03;;;;;;;4.60;4.20;;;;;;;23.82;51.46;98507.95;1854420;76;21077;-70
2022/05/21 12:37:38;;;;;;;4.15;3.85;;;;;;;23.84;51.62;98498.98;1854093;77;21012;-71
2022/05/21 12:40:31;;;;;;;4.67;4.28;;;;;;;23.86;51.55;98491.37;1854248;76;21014;-71
2022/05/21 12:43:08;;;;;;;4.60;4.20;;;;;;;23.90;51.26;98486.99;1852635;77;21026;-70
2022/05/21 12:45:47;;;;;;;3.83;3.52;;;;;;;24.04;51.18;98484.41;1854079;77;20978;-70